Time;durP1;ratioP1;P1;durP2;ratioP2;P2;SDS_P1;SDS_P2;PMS_P1;PMS_P2;Temp;Humidity;BMP_temperature;BMP_pressure;BME280_temperature;BME280_humidity;BME280_pressure;Samples;Min_cycle;Max_cycle;Signal;HPM_P1;HPM_P2
2021/03/26 00:01:50;;;;;;;63.80;36.73;;;;;;;;;;5079277;28;20280;-46
2021/03/26 00:04:16;;;;;;;67.23;37.87;;;;;;;;;;5066653;28;20225;-48
2021/03/26 00:06:43;;;;;;;68.40;36.60;;;;;;;;;;5087989;28;20704;-48
2021/03/26 00:09:16;;;;;;;67.63;38.10;;;;;;;;;;5083802;28;20599;-47
2021/03/26 00:11:42;;;;;;;66.67;38.47;;;;;;;;;;5084320;28;20220;-48
2021/03/26 00:14:07;;;;;;;69.90;37.33;;;;;;;;;;5069631;28;20240;-46
2021/03/26 00:16:33;;;;;;;75.77;41.07;;;;;;;;;;5086235;28;20269;-45
2021/03/26 00:18:58;;;;;;;70.40;40.20;;;;;;;;;;5084835;28;20631;-45
2021/03/26 00:21:24;;;;;;;73.80;42.03;;;;;;;;;;5080678;28;20212;-46
2021/03/26 00:23:50;;;;;;;73.17;40.30;;;;;;;;;;5082839;28;20715;-46
2021/03/26 00:26:16;;;;;;;74.93;40.90;;;;;;;;;;5079129;28;20184;-46
2021/03/26 00:28:41;;;;;;;80.37;40.63;;;;;;;;;;5086112;28;20180;-47
2021/03/26 00:31:07;;;;;;;75.70;39.63;;;;;;;;;;5082913;28;20654;-46
2021/03/26 00:33:33;;;;;;;70.83;39.90;;;;;;;;;;5084321;28;20203;-46
2021/03/26 00:35:58;;;;;;;73.63;41.03;;;;;;;;;;5060396;28;20212;-46
2021/03/26 00:38:25;;;;;;;74.23;39.80;;;;;;;;;;5086519;28;20252;-46
2021/03/26 00:40:51;;;;;;;74.17;40.33;;;;;;;;;;5060289;28;20594;-47
2021/03/26 00:43:16;;;;;;;69.07;39.53;;;;;;;;;;5083280;28;20184;-45
2021/03/26 00:45:41;;;;;;;74.30;38.83;;;;;;;;;;5080787;28;20227;-45
2021/03/26 00:48:10;;;;;;;68.07;39.83;;;;;;;;;;5045843;28;20250;-46
2021/03/26 00:50:38;;;;;;;71.77;40.27;;;;;;;;;;5072946;28;20203;-46
2021/03/26 00:53:09;;;;;;;69.33;40.13;;;;;;;;;;5087476;28;20640;-46
2021/03/26 00:55:35;;;;;;;69.83;38.30;;;;;;;;;;5065598;28;20212;-46
2021/03/26 00:58:00;;;;;;;70.97;39.87;;;;;;;;;;5088000;28;20196;-47
2021/03/26 01:00:26;;;;;;;69.33;40.47;;;;;;;;;;5085583;28;20245;-45
2021/03/26 01:02:52;;;;;;;70.13;38.73;;;;;;;;;;5064960;28;20633;-47
2021/03/26 01:05:29;;;;;;;67.37;38.40;;;;;;;;;;5084403;28;20218;-46
2021/03/26 01:07:54;;;;;;;62.83;39.23;;;;;;;;;;5089056;28;20230;-46
2021/03/26 01:10:22;;;;;;;60.80;35.57;;;;;;;;;;5087894;28;20188;-45
2021/03/26 01:12:48;;;;;;;63.87;38.67;;;;;;;;;;5086835;28;20216;-46
2021/03/26 01:15:16;;;;;;;63.13;37.87;;;;;;;;;;5080307;28;20246;-46
2021/03/26 01:17:42;;;;;;;64.33;38.57;;;;;;;;;;5081955;28;20227;-46
2021/03/26 01:20:11;;;;;;;70.87;37.60;;;;;;;;;;5089503;28;20567;-45
2021/03/26 01:22:37;;;;;;;65.87;37.77;;;;;;;;;;5080447;28;20201;-48
2021/03/26 01:25:10;;;;;;;63.37;37.37;;;;;;;;;;5078767;28;20212;-46
2021/03/26 01:27:35;;;;;;;62.20;37.00;;;;;;;;;;5088935;28;20212;-48
2021/03/26 01:30:01;;;;;;;69.87;39.43;;;;;;;;;;5090119;28;20526;-48
2021/03/26 01:32:26;;;;;;;70.10;39.87;;;;;;;;;;5086055;28;20667;-45
2021/03/26 01:34:51;;;;;;;69.13;37.13;;;;;;;;;;5087026;28;20216;-48
2021/03/26 01:37:16;;;;;;;68.53;38.60;;;;;;;;;;5085614;28;20205;-45
2021/03/26 01:39:42;;;;;;;64.37;38.37;;;;;;;;;;5088190;28;20249;-46
2021/03/26 01:42:26;;;;;;;71.90;39.10;;;;;;;;;;5085748;28;20203;-45
2021/03/26 01:44:52;;;;;;;68.73;39.10;;;;;;;;;;5086645;28;20273;-46
2021/03/26 01:47:17;;;;;;;68.90;39.30;;;;;;;;;;5068848;28;20185;-46
2021/03/26 01:49:42;;;;;;;71.23;40.97;;;;;;;;;;5086140;28;20221;-46
2021/03/26 01:52:07;;;;;;;73.07;42.03;;;;;;;;;;5090028;28;20184;-46
2021/03/26 01:54:33;;;;;;;67.27;39.57;;;;;;;;;;5083793;28;20201;-46
2021/03/26 01:56:58;;;;;;;70.77;39.53;;;;;;;;;;5087515;28;20201;-46
2021/03/26 01:59:24;;;;;;;68.00;39.97;;;;;;;;;;5069337;28;20197;-46
2021/03/26 02:01:56;;;;;;;67.27;40.37;;;;;;;;;;5087987;28;20184;-47
2021/03/26 02:04:29;;;;;;;64.57;39.27;;;;;;;;;;5082892;28;20699;-48
2021/03/26 02:06:57;;;;;;;66.00;38.80;;;;;;;;;;5084196;28;20267;-48
2021/03/26 02:09:31;;;;;;;66.47;39.00;;;;;;;;;;5085108;28;20188;-46
2021/03/26 02:12:02;;;;;;;63.30;37.80;;;;;;;;;;5083020;28;20671;-46
2021/03/26 02:15:07;;;;;;;58.00;35.97;;;;;;;;;;5088224;28;20205;-47
2021/03/26 02:17:34;;;;;;;59.97;35.63;;;;;;;;;;5087814;28;20261;-46
2021/03/26 02:20:06;;;;;;;62.83;36.07;;;;;;;;;;5085107;28;20184;-45
2021/03/26 02:22:34;;;;;;;61.70;36.97;;;;;;;;;;5085433;28;20189;-46
2021/03/26 02:24:59;;;;;;;69.53;39.83;;;;;;;;;;5082211;28;20621;-47
2021/03/26 02:27:29;;;;;;;70.33;38.57;;;;;;;;;;5071734;28;20279;-47
2021/03/26 02:29:55;;;;;;;67.23;39.10;;;;;;;;;;5084626;28;20196;-47
2021/03/26 02:32:34;;;;;;;66.73;38.43;;;;;;;;;;5070930;28;20663;-47
2021/03/26 02:35:31;;;;;;;67.87;38.60;;;;;;;;;;5083946;28;20330;-48
2021/03/26 02:38:10;;;;;;;57.43;32.77;;;;;;;;;;5067987;28;20350;-47
2021/03/26 02:41:04;;;;;;;64.33;32.37;;;;;;;;;;5089488;28;20188;-47
2021/03/26 02:43:55;;;;;;;67.47;38.37;;;;;;;;;;5085756;28;20197;-46
2021/03/26 02:46:42;;;;;;;77.50;40.97;;;;;;;;;;5081840;28;20568;-47
2021/03/26 02:49:17;;;;;;;69.33;39.17;;;;;;;;;;5085904;28;20206;-48
2021/03/26 02:51:47;;;;;;;73.13;39.43;;;;;;;;;;5077578;28;20196;-46
2021/03/26 02:54:19;;;;;;;81.23;39.77;;;;;;;;;;5086640;28;20212;-46
2021/03/26 02:56:50;;;;;;;78.13;39.73;;;;;;;;;;5086377;28;20342;-46
2021/03/26 02:59:21;;;;;;;72.77;41.20;;;;;;;;;;5082480;28;20193;-46
2021/03/26 03:01:54;;;;;;;73.30;40.50;;;;;;;;;;5085721;28;20192;-46
2021/03/26 03:04:42;;;;;;;77.43;40.40;;;;;;;;;;5084839;28;20263;-48
2021/03/26 03:07:21;;;;;;;75.53;41.30;;;;;;;;;;5084555;28;20185;-46
2021/03/26 03:09:49;;;;;;;72.07;39.43;;;;;;;;;;5080876;28;20261;-46
2021/03/26 03:12:30;;;;;;;69.17;40.60;;;;;;;;;;5084742;28;20201;-47
2021/03/26 03:15:08;;;;;;;71.87;38.97;;;;;;;;;;5067083;28;20604;-48
2021/03/26 03:17:40;;;;;;;67.80;39.80;;;;;;;;;;5084259;28;20196;-46
2021/03/26 03:20:16;;;;;;;69.17;38.67;;;;;;;;;;5084626;28;20197;-46
2021/03/26 03:23:15;;;;;;;65.90;40.33;;;;;;;;;;5082700;28;20189;-45
2021/03/26 03:25:41;;;;;;;71.07;40.87;;;;;;;;;;5076688;28;20212;-46
2021/03/26 03:28:10;;;;;;;64.50;38.37;;;;;;;;;;5085783;28;20196;-46
2021/03/26 03:30:54;;;;;;;61.70;38.70;;;;;;;;;;5084687;28;20575;-46
2021/03/26 03:33:41;;;;;;;68.53;39.20;;;;;;;;;;5084879;28;20197;-46
2021/03/26 03:36:16;;;;;;;64.90;40.30;;;;;;;;;;5083209;28;20219;-46
2021/03/26 03:39:06;;;;;;;76.60;41.90;;;;;;;;;;5088773;28;20289;-46
2021/03/26 03:41:35;;;;;;;72.07;41.77;;;;;;;;;;5088581;28;20268;-46
2021/03/26 03:44:13;;;;;;;73.40;42.30;;;;;;;;;;5080873;28;20189;-46
2021/03/26 03:46:45;;;;;;;69.07;40.17;;;;;;;;;;5082957;28;20561;-46
2021/03/26 03:49:19;;;;;;;64.20;39.23;;;;;;;;;;5085115;28;20185;-46
2021/03/26 03:51:56;;;;;;;67.50;40.03;;;;;;;;;;5087337;28;20606;-46
2021/03/26 03:54:29;;;;;;;70.17;39.07;;;;;;;;;;5085530;28;20208;-46
2021/03/26 03:57:19;;;;;;;62.33;37.23;;;;;;;;;;5082548;28;20208;-46
2021/03/26 04:00:07;;;;;;;71.43;41.43;;;;;;;;;;5084903;28;20189;-46
2021/03/26 04:02:50;;;;;;;68.20;38.10;;;;;;;;;;5083288;28;20190;-46
2021/03/26 04:05:23;;;;;;;69.63;40.93;;;;;;;;;;5083860;28;20341;-46
2021/03/26 04:07:59;;;;;;;62.83;37.07;;;;;;;;;;5067868;28;20193;-46
2021/03/26 04:10:26;;;;;;;65.10;37.07;;;;;;;;;;5087786;28;20195;-48
2021/03/26 04:12:55;;;;;;;64.57;36.10;;;;;;;;;;5081803;28;20184;-46
2021/03/26 04:15:34;;;;;;;56.27;31.83;;;;;;;;;;5065097;28;20319;-46
2021/03/26 04:18:23;;;;;;;63.17;32.03;;;;;;;;;;5062125;28;20204;-46
2021/03/26 04:21:01;;;;;;;72.63;36.77;;;;;;;;;;5081393;28;20258;-46
2021/03/26 04:23:32;;;;;;;73.93;39.20;;;;;;;;;;5076130;28;20191;-46
2021/03/26 04:26:41;;;;;;;76.70;39.27;;;;;;;;;;5082949;28;20200;-46
2021/03/26 04:29:23;;;;;;;77.63;40.20;;;;;;;;;;5074014;28;20249;-45
2021/03/26 04:31:56;;;;;;;65.97;38.03;;;;;;;;;;5087557;28;20185;-47
2021/03/26 04:34:22;;;;;;;75.20;39.67;;;;;;;;;;5084091;28;20217;-46
2021/03/26 04:37:00;;;;;;;76.20;40.87;;;;;;;;;;5080259;28;20274;-46
2021/03/26 04:39:38;;;;;;;78.43;39.73;;;;;;;;;;5059874;28;20193;-46
2021/03/26 04:42:15;;;;;;;67.73;38.53;;;;;;;;;;5086662;28;20649;-46
2021/03/26 04:44:49;;;;;;;76.17;40.00;;;;;;;;;;5082238;28;20209;-46
2021/03/26 04:47:49;;;;;;;69.17;39.80;;;;;;;;;;5084387;28;20641;-45
2021/03/26 04:50:20;;;;;;;68.13;40.60;;;;;;;;;;5081845;28;20204;-47
2021/03/26 04:52:52;;;;;;;63.97;36.90;;;;;;;;;;5077863;28;20673;-47
2021/03/26 04:55:22;;;;;;;62.30;36.87;;;;;;;;;;5070049;28;20622;-47
2021/03/26 04:57:56;;;;;;;66.47;36.27;;;;;;;;;;5085265;28;20204;-48
2021/03/26 05:00:35;;;;;;;69.03;39.43;;;;;;;;;;5082930;28;20189;-47
2021/03/26 05:03:07;;;;;;;73.70;41.20;;;;;;;;;;5083344;28;20223;-46
2021/03/26 05:05:40;;;;;;;80.23;41.53;;;;;;;;;;5080831;28;20620;-46
2021/03/26 05:08:06;;;;;;;78.10;42.57;;;;;;;;;;5081447;28;20209;-45
2021/03/26 05:10:35;;;;;;;74.60;41.77;;;;;;;;;;5083871;28;20195;-46
2021/03/26 05:13:10;;;;;;;78.77;43.13;;;;;;;;;;5083265;28;20216;-46
2021/03/26 05:15:43;;;;;;;70.63;39.70;;;;;;;;;;5081571;28;20223;-46
2021/03/26 05:18:14;;;;;;;76.77;43.17;;;;;;;;;;5065995;28;20650;-45
2021/03/26 05:21:10;;;;;;;80.47;43.30;;;;;;;;;;5068837;28;20350;-46
2021/03/26 05:23:42;;;;;;;69.27;39.20;;;;;;;;;;5073804;28;20577;-46
2021/03/26 05:26:08;;;;;;;72.73;41.60;;;;;;;;;;5074576;28;20257;-46
2021/03/26 05:28:38;;;;;;;69.90;41.50;;;;;;;;;;5084431;28;20196;-47
2021/03/26 05:31:13;;;;;;;70.73;40.87;;;;;;;;;;5071978;28;20281;-46
2021/03/26 05:33:46;;;;;;;65.07;36.40;;;;;;;;;;5087036;28;20205;-46
2021/03/26 05:36:32;;;;;;;73.07;39.93;;;;;;;;;;5086871;28;20200;-48
2021/03/26 05:39:26;;;;;;;66.60;37.83;;;;;;;;;;5063499;28;20189;-48
2021/03/26 05:42:36;;;;;;;65.50;37.57;;;;;;;;;;5078451;28;20200;-45
2021/03/26 05:45:23;;;;;;;68.87;36.13;;;;;;;;;;5079696;28;20221;-47
2021/03/26 05:48:35;;;;;;;71.07;38.13;;;;;;;;;;5088140;28;20177;-46
2021/03/26 05:51:18;;;;;;;67.03;37.67;;;;;;;;;;5069821;28;20204;-47
2021/03/26 05:53:46;;;;;;;69.37;39.13;;;;;;;;;;5083344;28;20196;-45
2021/03/26 05:56:50;;;;;;;72.93;38.27;;;;;;;;;;5087467;28;20557;-47
2021/03/26 05:59:42;;;;;;;74.57;38.63;;;;;;;;;;5073967;28;20762;-45
2021/03/26 06:02:45;;;;;;;77.37;40.50;;;;;;;;;;5090657;28;20193;-47
2021/03/26 06:05:16;;;;;;;79.50;43.10;;;;;;;;;;5070187;28;20618;-47
2021/03/26 06:08:15;;;;;;;75.20;41.70;;;;;;;;;;5082261;28;20197;-47
2021/03/26 06:11:18;;;;;;;74.90;40.77;;;;;;;;;;5081157;28;20679;-48
2021/03/26 06:14:05;;;;;;;75.63;42.23;;;;;;;;;;5084669;28;20229;-45
2021/03/26 06:16:43;;;;;;;73.93;41.17;;;;;;;;;;5082708;28;20200;-46
2021/03/26 06:19:17;;;;;;;70.53;40.47;;;;;;;;;;5064154;28;20192;-46
2021/03/26 06:22:17;;;;;;;72.80;40.50;;;;;;;;;;5083474;28;20184;-46
2021/03/26 06:25:16;;;;;;;65.53;38.40;;;;;;;;;;5081515;28;20546;-47
2021/03/26 06:28:06;;;;;;;68.97;39.13;;;;;;;;;;5081594;28;20604;-46
2021/03/26 06:30:40;;;;;;;59.97;34.50;;;;;;;;;;5083405;28;20189;-46
2021/03/26 06:33:45;;;;;;;60.13;34.00;;;;;;;;;;5084414;28;20652;-48
2021/03/26 06:36:41;;;;;;;51.50;27.20;;;;;;;;;;5084633;28;20208;-48
2021/03/26 06:39:40;;;;;;;58.30;32.17;;;;;;;;;;5065533;28;20201;-48
2021/03/26 06:42:43;;;;;;;73.10;37.40;;;;;;;;;;5083122;28;20192;-49
2021/03/26 06:45:46;;;;;;;65.10;36.60;;;;;;;;;;5079804;28;20294;-47
2021/03/26 06:48:14;;;;;;;65.87;35.13;;;;;;;;;;5079478;28;20476;-47
2021/03/26 06:51:09;;;;;;;68.40;37.60;;;;;;;;;;5084144;28;20193;-46
2021/03/26 06:53:55;;;;;;;69.13;36.53;;;;;;;;;;5086740;28;20200;-46
2021/03/26 06:56:57;;;;;;;66.70;36.77;;;;;;;;;;5087402;28;20196;-47
2021/03/26 06:59:51;;;;;;;70.40;39.47;;;;;;;;;;5089015;28;20244;-45
2021/03/26 07:02:41;;;;;;;74.07;40.90;;;;;;;;;;5088873;28;20200;-47
2021/03/26 07:05:24;;;;;;;70.83;38.70;;;;;;;;;;5080254;28;20227;-48
2021/03/26 07:08:14;;;;;;;66.80;39.47;;;;;;;;;;5085553;28;20250;-48
2021/03/26 07:10:58;;;;;;;65.00;39.63;;;;;;;;;;5084037;28;20211;-48
2021/03/26 07:13:39;;;;;;;60.47;36.67;;;;;;;;;;5079348;28;20188;-48
2021/03/26 07:16:41;;;;;;;60.60;36.10;;;;;;;;;;5075849;28;20821;-48
2021/03/26 07:19:22;;;;;;;55.33;33.87;;;;;;;;;;5080867;28;20192;-46
2021/03/26 07:22:00;;;;;;;60.07;36.60;;;;;;;;;;5065758;28;20645;-48
2021/03/26 07:24:46;;;;;;;55.23;33.33;;;;;;;;;;5080340;28;20224;-47
2021/03/26 07:27:33;;;;;;;59.70;34.33;;;;;;;;;;5085211;28;20192;-47
2021/03/26 07:30:29;;;;;;;53.37;34.60;;;;;;;;;;5080713;28;20188;-47
2021/03/26 07:33:20;;;;;;;53.60;30.30;;;;;;;;;;5084597;28;20201;-46
2021/03/26 07:35:48;;;;;;;51.50;31.77;;;;;;;;;;5083803;28;20216;-48
2021/03/26 07:38:44;;;;;;;52.23;30.63;;;;;;;;;;5078826;28;20192;-48
2021/03/26 07:41:33;;;;;;;50.67;31.17;;;;;;;;;;5087682;28;20230;-47
2021/03/26 07:44:27;;;;;;;51.60;29.97;;;;;;;;;;5078391;28;20211;-48
2021/03/26 07:47:13;;;;;;;51.27;30.37;;;;;;;;;;5064884;28;20189;-48
2021/03/26 07:50:08;;;;;;;49.73;29.27;;;;;;;;;;5078098;28;20251;-47
2021/03/26 07:52:42;;;;;;;43.57;27.53;;;;;;;;;;5066300;28;20219;-48
2021/03/26 07:55:08;;;;;;;44.77;23.30;;;;;;;;;;5072703;28;20266;-48
2021/03/26 07:57:48;;;;;;;46.40;25.57;;;;;;;;;;5067164;28;20204;-47
2021/03/26 08:00:33;;;;;;;41.47;20.90;;;;;;;;;;5061794;28;20200;-48
2021/03/26 08:03:11;;;;;;;43.63;23.67;;;;;;;;;;5083611;28;20188;-47
2021/03/26 08:05:48;;;;;;;44.87;23.50;;;;;;;;;;5070633;28;20208;-48
2021/03/26 08:08:47;;;;;;;35.07;17.13;;;;;;;;;;5083808;28;20653;-47
2021/03/26 08:11:52;;;;;;;24.20;13.53;;;;;;;;;;5080079;28;20684;-47
2021/03/26 08:14:27;;;;;;;40.23;21.83;;;;;;;;;;5068498;28;20228;-49
2021/03/26 08:17:08;;;;;;;38.20;21.97;;;;;;;;;;5051087;28;20587;-47
2021/03/26 08:19:50;;;;;;;38.53;21.17;;;;;;;;;;5068034;28;20215;-47
2021/03/26 08:22:26;;;;;;;22.50;13.37;;;;;;;;;;5078591;28;20245;-48
2021/03/26 08:25:03;;;;;;;10.37;6.97;;;;;;;;;;5080701;28;20219;-47
2021/03/26 08:27:54;;;;;;;21.30;11.93;;;;;;;;;;5083363;28;20211;-48
2021/03/26 08:30:54;;;;;;;20.83;11.80;;;;;;;;;;5071378;28;20224;-49
2021/03/26 08:33:42;;;;;;;22.13;12.03;;;;;;;;;;5081263;28;20241;-47
2021/03/26 08:36:10;;;;;;;22.77;12.30;;;;;;;;;;5084919;28;20208;-48
2021/03/26 08:38:52;;;;;;;17.17;9.77;;;;;;;;;;5083475;28;20281;-49
2021/03/26 08:41:22;;;;;;;20.73;10.97;;;;;;;;;;5056670;28;20196;-49
2021/03/26 08:43:50;;;;;;;34.40;21.80;;;;;;;;;;5082155;28;20200;-49
2021/03/26 08:46:24;;;;;;;26.27;16.37;;;;;;;;;;5076324;28;20197;-49
2021/03/26 08:48:59;;;;;;;17.77;9.07;;;;;;;;;;5066178;28;20233;-49
2021/03/26 08:51:48;;;;;;;26.53;16.17;;;;;;;;;;5080131;28;20202;-49
2021/03/26 08:54:32;;;;;;;27.83;17.80;;;;;;;;;;5064081;28;20212;-50
2021/03/26 08:57:19;;;;;;;34.53;20.77;;;;;;;;;;5077544;28;20585;-49
2021/03/26 09:00:15;;;;;;;31.53;18.47;;;;;;;;;;5079366;28;20183;-48
2021/03/26 09:03:05;;;;;;;21.77;12.50;;;;;;;;;;5075816;28;20192;-49
2021/03/26 09:05:47;;;;;;;35.60;23.60;;;;;;;;;;5079234;28;20210;-48
2021/03/26 09:08:32;;;;;;;21.37;13.97;;;;;;;;;;5069211;28;20199;-48
2021/03/26 09:11:21;;;;;;;30.60;19.13;;;;;;;;;;5082541;28;20242;-49
2021/03/26 09:13:49;;;;;;;31.27;19.80;;;;;;;;;;5084800;28;20188;-49
2021/03/26 09:16:27;;;;;;;15.33;10.67;;;;;;;;;;5084300;28;20208;-50
2021/03/26 09:19:08;;;;;;;19.77;12.23;;;;;;;;;;5086046;28;20203;-49
2021/03/26 09:21:44;;;;;;;20.20;12.37;;;;;;;;;;5061341;28;20193;-49
2021/03/26 09:24:20;;;;;;;32.27;21.87;;;;;;;;;;5067642;28;20261;-48
2021/03/26 09:27:01;;;;;;;27.57;16.77;;;;;;;;;;5086606;28;20172;-50
2021/03/26 09:30:04;;;;;;;29.07;19.27;;;;;;;;;;5064308;28;20223;-47
2021/03/26 09:32:44;;;;;;;26.70;15.90;;;;;;;;;;5078670;28;20207;-48
2021/03/26 09:35:18;;;;;;;26.50;17.83;;;;;;;;;;5080594;28;20204;-47
2021/03/26 09:37:54;;;;;;;33.27;23.87;;;;;;;;;;5086494;28;20208;-49
2021/03/26 09:40:31;;;;;;;25.80;16.57;;;;;;;;;;5085085;28;20184;-48
2021/03/26 09:43:23;;;;;;;14.40;9.17;;;;;;;;;;5082905;28;20272;-50
2021/03/26 09:46:04;;;;;;;27.40;19.03;;;;;;;;;;5081261;28;20488;-48
2021/03/26 09:48:50;;;;;;;20.93;12.10;;;;;;;;;;5085793;28;20215;-47
2021/03/26 09:51:33;;;;;;;19.97;11.53;;;;;;;;;;5087451;28;20196;-48
2021/03/26 09:54:26;;;;;;;29.53;20.53;;;;;;;;;;5082599;28;20300;-47
2021/03/26 09:57:10;;;;;;;24.40;14.93;;;;;;;;;;5070176;28;20216;-46
2021/03/26 10:00:10;;;;;;;22.43;11.07;;;;;;;;;;5060477;28;21190;-49
2021/03/26 10:02:45;;;;;;;21.13;13.77;;;;;;;;;;5068306;28;20193;-47
2021/03/26 10:05:32;;;;;;;19.07;12.87;;;;;;;;;;5086384;28;20792;-46
2021/03/26 10:08:20;;;;;;;15.73;10.37;;;;;;;;;;5085897;28;20238;-49
2021/03/26 10:10:47;;;;;;;22.30;15.70;;;;;;;;;;5079704;28;20610;-47
2021/03/26 10:13:17;;;;;;;18.70;11.83;;;;;;;;;;5065132;28;20650;-48
2021/03/26 10:16:00;;;;;;;23.50;15.43;;;;;;;;;;5066229;28;20572;-47
2021/03/26 10:18:32;;;;;;;15.43;9.53;;;;;;;;;;5087042;28;20193;-47
2021/03/26 10:21:00;;;;;;;15.50;9.17;;;;;;;;;;5084240;28;20193;-47
2021/03/26 10:23:35;;;;;;;16.07;9.13;;;;;;;;;;5083436;28;20220;-48
2021/03/26 10:26:27;;;;;;;16.07;12.40;;;;;;;;;;5065821;28;20204;-48
2021/03/26 10:29:02;;;;;;;19.27;12.93;;;;;;;;;;5067163;28;20193;-47
2021/03/26 10:31:34;;;;;;;23.83;14.80;;;;;;;;;;5078911;28;20259;-48
2021/03/26 10:34:06;;;;;;;16.20;9.70;;;;;;;;;;5082671;28;20181;-48
2021/03/26 10:36:51;;;;;;;16.23;8.63;;;;;;;;;;5084588;28;20205;-48
2021/03/26 10:39:30;;;;;;;10.20;7.07;;;;;;;;;;5085047;28;20189;-48
2021/03/26 10:42:00;;;;;;;9.87;6.63;;;;;;;;;;5083551;28;20271;-47
2021/03/26 10:44:47;;;;;;;10.70;6.70;;;;;;;;;;5083913;28;20242;-47
2021/03/26 10:47:26;;;;;;;13.23;7.23;;;;;;;;;;5086178;28;20181;-49
2021/03/26 10:49:57;;;;;;;8.90;6.27;;;;;;;;;;5083000;28;20226;-47
2021/03/26 10:52:36;;;;;;;8.17;4.50;;;;;;;;;;5083798;28;20278;-49
2021/03/26 10:55:10;;;;;;;15.10;9.50;;;;;;;;;;5067402;28;20346;-47
2021/03/26 10:58:01;;;;;;;15.87;11.67;;;;;;;;;;5079589;28;20600;-48
2021/03/26 11:00:44;;;;;;;12.87;9.80;;;;;;;;;;5080600;28;20711;-50
2021/03/26 11:03:18;;;;;;;15.60;10.87;;;;;;;;;;5084886;28;20195;-49
2021/03/26 11:05:59;;;;;;;11.67;7.60;;;;;;;;;;5080323;28;20303;-48
2021/03/26 11:08:33;;;;;;;11.10;5.93;;;;;;;;;;5065953;28;20219;-48
2021/03/26 11:11:06;;;;;;;13.50;9.00;;;;;;;;;;5082892;28;20215;-49
2021/03/26 11:13:53;;;;;;;14.10;10.17;;;;;;;;;;5081780;28;20204;-49
2021/03/26 11:16:21;;;;;;;5.87;4.37;;;;;;;;;;5083053;28;20602;-47
2021/03/26 11:18:56;;;;;;;15.93;11.40;;;;;;;;;;5083249;28;20280;-49
2021/03/26 11:21:22;;;;;;;19.00;11.57;;;;;;;;;;5080558;28;20203;-49
2021/03/26 11:23:58;;;;;;;16.23;10.07;;;;;;;;;;5066716;28;20231;-47
2021/03/26 11:26:38;;;;;;;15.87;11.20;;;;;;;;;;5078786;28;20565;-49
2021/03/26 11:29:19;;;;;;;12.50;7.87;;;;;;;;;;5078145;28;20192;-48
2021/03/26 11:32:13;;;;;;;16.53;10.73;;;;;;;;;;5084388;28;20249;-48
2021/03/26 11:35:00;;;;;;;11.13;7.93;;;;;;;;;;5063047;28;20732;-48
2021/03/26 11:37:36;;;;;;;12.97;8.40;;;;;;;;;;5081663;28;20213;-48
2021/03/26 11:40:07;;;;;;;11.27;6.90;;;;;;;;;;5058562;28;20199;-50
2021/03/26 11:42:40;;;;;;;13.03;9.10;;;;;;;;;;5079529;28;20196;-47
2021/03/26 11:45:26;;;;;;;10.97;7.57;;;;;;;;;;5071346;28;20208;-48
2021/03/26 11:48:16;;;;;;;13.47;8.67;;;;;;;;;;5072347;28;20563;-48
2021/03/26 11:50:50;;;;;;;13.87;10.20;;;;;;;;;;5076578;28;20197;-49
2021/03/26 11:53:19;;;;;;;14.47;9.87;;;;;;;;;;5075321;28;20286;-49
2021/03/26 11:56:06;;;;;;;13.00;6.90;;;;;;;;;;5077653;28;20351;-48
2021/03/26 11:58:39;;;;;;;9.37;6.17;;;;;;;;;;5079509;28;20209;-49
2021/03/26 12:01:08;;;;;;;10.07;7.47;;;;;;;;;;5069484;28;20425;-48
2021/03/26 12:03:56;;;;;;;9.37;6.17;;;;;;;;;;5069949;28;20199;-48
2021/03/26 12:06:33;;;;;;;12.47;7.07;;;;;;;;;;5081683;28;20193;-49
2021/03/26 12:09:20;;;;;;;9.17;6.70;;;;;;;;;;5080872;28;20237;-48
2021/03/26 12:12:20;;;;;;;11.13;7.40;;;;;;;;;;5079197;28;20192;-48
2021/03/26 12:15:12;;;;;;;10.90;6.60;;;;;;;;;;5060176;28;20715;-48
2021/03/26 12:17:55;;;;;;;13.03;7.73;;;;;;;;;;5083296;28;20291;-48
2021/03/26 12:20:36;;;;;;;8.47;5.03;;;;;;;;;;5079781;28;20283;-47
2021/03/26 12:23:11;;;;;;;10.47;6.93;;;;;;;;;;5079811;28;20193;-48
2021/03/26 12:25:49;;;;;;;10.20;6.87;;;;;;;;;;5080995;28;20220;-47
2021/03/26 12:28:48;;;;;;;4.93;4.00;;;;;;;;;;5079902;28;20200;-48
2021/03/26 12:31:19;;;;;;;8.03;5.97;;;;;;;;;;5076061;28;20676;-49
2021/03/26 12:33:57;;;;;;;7.17;5.30;;;;;;;;;;5093764;28;20188;-49
2021/03/26 12:36:31;;;;;;;9.20;7.67;;;;;;;;;;5081074;28;20680;-49
2021/03/26 12:39:07;;;;;;;8.40;5.47;;;;;;;;;;5051877;28;20212;-49
2021/03/26 12:41:50;;;;;;;8.63;5.90;;;;;;;;;;5082189;28;20288;-48
2021/03/26 12:44:38;;;;;;;8.10;6.57;;;;;;;;;;5075565;28;20216;-49
2021/03/26 12:47:33;;;;;;;7.30;4.40;;;;;;;;;;5084990;28;20574;-49
2021/03/26 12:50:12;;;;;;;5.03;3.87;;;;;;;;;;5080451;28;20200;-48
2021/03/26 12:52:57;;;;;;;8.50;5.70;;;;;;;;;;5071702;28;21707;-49
2021/03/26 12:55:32;;;;;;;8.60;5.63;;;;;;;;;;5094738;28;20232;-50
2021/03/26 12:58:15;;;;;;;6.40;3.57;;;;;;;;;;5067439;28;20303;-49
2021/03/26 13:00:40;;;;;;;8.70;4.23;;;;;;;;;;5088294;28;20272;-48
2021/03/26 13:03:32;;;;;;;5.07;3.53;;;;;;;;;;5092597;28;20263;-49
2021/03/26 13:06:13;;;;;;;4.60;3.57;;;;;;;;;;5081442;28;20304;-49
2021/03/26 13:08:43;;;;;;;5.10;3.47;;;;;;;;;;5086242;28;20193;-48
2021/03/26 13:11:37;;;;;;;9.30;6.17;;;;;;;;;;5087173;28;20189;-49
2021/03/26 13:14:14;;;;;;;6.43;5.40;;;;;;;;;;5081269;28;20266;-54
2021/03/26 13:16:47;;;;;;;9.30;5.87;;;;;;;;;;5087058;28;20208;-50
2021/03/26 13:19:21;;;;;;;10.33;4.83;;;;;;;;;;5079250;28;20209;-54
2021/03/26 13:22:10;;;;;;;6.40;3.90;;;;;;;;;;5085452;28;20238;-54
2021/03/26 13:25:02;;;;;;;7.27;3.87;;;;;;;;;;5084948;28;20212;-53
2021/03/26 13:27:36;;;;;;;4.60;3.50;;;;;;;;;;5086704;28;20188;-55
2021/03/26 13:32:34;;;;;;;9.53;6.90;;;;;;;;;;5081210;27;20577;-52
2021/03/26 13:35:00;;;;;;;12.17;8.57;;;;;;;;;;5079510;28;20235;-51
2021/03/26 13:37:37;;;;;;;8.07;6.27;;;;;;;;;;5077803;28;20199;-52
2021/03/26 13:40:14;;;;;;;8.27;6.43;;;;;;;;;;5076059;28;20192;-50
2021/03/26 13:42:47;;;;;;;9.70;6.23;;;;;;;;;;5082017;28;20200;-50
2021/03/26 13:45:17;;;;;;;10.63;8.33;;;;;;;;;;5081904;28;20252;-52
2021/03/26 13:47:54;;;;;;;11.93;8.33;;;;;;;;;;5082299;28;20245;-50
2021/03/26 13:50:53;;;;;;;10.00;6.90;;;;;;;;;;5101531;28;20584;-52
2021/03/26 13:53:49;;;;;;;5.70;3.27;;;;;;;;;;5080030;28;20201;-52
2021/03/26 13:56:24;;;;;;;11.80;6.93;;;;;;;;;;5073648;28;20272;-52
2021/03/26 13:58:59;;;;;;;34.70;9.50;;;;;;;;;;5090805;28;20648;-53
2021/03/26 14:01:30;;;;;;;14.67;6.80;;;;;;;;;;5076559;28;20185;-51
2021/03/26 14:04:50;;;;;;;12.30;8.70;;;;;;;;;;5074594;28;20688;-54
2021/03/26 14:07:18;;;;;;;9.73;6.73;;;;;;;;;;5078578;28;20188;-52
2021/03/26 14:09:46;;;;;;;8.90;8.00;;;;;;;;;;5090782;28;20249;-52
2021/03/26 14:12:32;;;;;;;10.07;7.17;;;;;;;;;;5075664;28;20207;-51
2021/03/26 14:15:03;;;;;;;11.90;7.93;;;;;;;;;;5073568;28;20216;-51
2021/03/26 14:17:31;;;;;;;9.90;6.97;;;;;;;;;;5082528;28;20281;-51
2021/03/26 14:20:05;;;;;;;13.27;8.07;;;;;;;;;;5077267;28;20211;-53
2021/03/26 14:22:53;;;;;;;5.23;3.83;;;;;;;;;;5082388;28;20192;-52
2021/03/26 14:25:31;;;;;;;8.67;5.47;;;;;;;;;;5062546;28;22116;-51
2021/03/26 14:28:29;;;;;;;10.27;6.67;;;;;;;;;;5079333;28;20220;-52
2021/03/26 14:30:57;;;;;;;10.77;6.97;;;;;;;;;;5074422;28;20209;-50
2021/03/26 14:33:43;;;;;;;13.17;6.53;;;;;;;;;;5074289;28;20266;-51
2021/03/26 14:36:27;;;;;;;6.37;4.87;;;;;;;;;;5074931;28;20257;-51
2021/03/26 14:38:54;;;;;;;4.27;2.67;;;;;;;;;;5078762;28;20189;-53
2021/03/26 14:41:33;;;;;;;9.60;5.67;;;;;;;;;;5075265;28;20193;-51
2021/03/26 14:44:07;;;;;;;3.90;2.23;;;;;;;;;;5073330;28;20224;-51
2021/03/26 14:46:46;;;;;;;4.80;3.60;;;;;;;;;;5060208;28;20442;-52
2021/03/26 14:49:37;;;;;;;8.37;6.37;;;;;;;;;;5062665;28;20224;-49
2021/03/26 14:52:09;;;;;;;6.63;5.40;;;;;;;;;;5023127;28;20229;-52
2021/03/26 14:54:39;;;;;;;9.03;5.20;;;;;;;;;;5062818;28;20217;-52
2021/03/26 14:57:20;;;;;;;4.10;3.50;;;;;;;;;;5062506;28;20189;-50
2021/03/26 15:00:18;;;;;;;8.03;5.33;;;;;;;;;;5065233;28;20687;-53
2021/03/26 15:02:47;;;;;;;7.67;4.67;;;;;;;;;;5058999;28;20266;-52
2021/03/26 15:05:26;;;;;;;6.23;4.80;;;;;;;;;;5061725;28;20212;-51
2021/03/26 15:07:52;;;;;;;4.57;2.47;;;;;;;;;;5064228;28;20189;-49
2021/03/26 15:10:27;;;;;;;5.60;3.37;;;;;;;;;;5063095;28;20284;-52
2021/03/26 15:13:05;;;;;;;4.73;3.07;;;;;;;;;;5062549;28;20431;-50
2021/03/26 15:15:46;;;;;;;6.17;3.60;;;;;;;;;;5062822;28;20734;-50
2021/03/26 15:18:27;;;;;;;6.63;4.10;;;;;;;;;;5063174;28;20819;-50
2021/03/26 15:21:19;;;;;;;4.27;3.77;;;;;;;;;;5063445;28;20299;-51
2021/03/26 15:24:22;;;;;;;1.33;1.20;;;;;;;;;;5060615;28;20197;-52
2021/03/26 15:26:55;;;;;;;4.80;4.03;;;;;;;;;;5061137;28;20328;-52
2021/03/26 15:29:25;;;;;;;4.80;3.57;;;;;;;;;;5064330;28;20705;-52
2021/03/26 15:32:15;;;;;;;5.83;4.30;;;;;;;;;;5066706;28;20236;-51
2021/03/26 15:35:12;;;;;;;7.47;3.53;;;;;;;;;;5054482;28;20261;-52